Time;durP1;ratioP1;P1;durP2;ratioP2;P2;SDS_P1;SDS_P2;PMS_P1;PMS_P2;Temp;Humidity;BMP_temperature;BMP_pressure;BME280_temperature;BME280_humidity;BME280_pressure;Samples;Min_cycle;Max_cycle;Signal;HPM_P1;HPM_P2
2023/05/18 00:00:00;;;;;;;5.23;2.53;;;;;;;13.80;100.00;94645.00;5013037;28;20639;-78
2023/05/18 00:02:26;;;;;;;5.43;2.50;;;;;;;13.78;100.00;94644.41;5019563;28;20305;-77
2023/05/18 00:04:51;;;;;;;3.43;2.00;;;;;;;13.75;100.00;94642.22;5015535;28;20996;-76
2023/05/18 00:07:17;;;;;;;3.77;2.20;;;;;;;13.74;100.00;94645.88;5031302;28;20237;-78
2023/05/18 00:09:42;;;;;;;4.43;2.40;;;;;;;13.74;100.00;94646.69;4999504;28;20260;-77
2023/05/18 00:12:08;;;;;;;3.03;2.00;;;;;;;13.79;100.00;94649.44;5032333;28;20229;-78
2023/05/18 00:14:34;;;;;;;2.80;2.07;;;;;;;13.74;100.00;94649.31;5033562;28;20261;-78
2023/05/18 00:17:02;;;;;;;3.37;2.10;;;;;;;13.68;100.00;94652.03;5017598;28;20252;-76
2023/05/18 00:19:28;;;;;;;2.93;2.00;;;;;;;13.76;100.00;94647.25;5032374;28;20237;-77
2023/05/18 00:21:57;;;;;;;4.70;2.10;;;;;;;13.73;100.00;94649.53;5018078;28;20703;-77
2023/05/18 00:24:22;;;;;;;3.03;2.03;;;;;;;13.77;100.00;94658.59;5032858;28;21334;-78
2023/05/18 00:26:48;;;;;;;2.60;1.50;;;;;;;13.65;100.00;94650.66;5034091;28;20324;-78
2023/05/18 00:29:14;;;;;;;1.30;1.20;;;;;;;13.63;100.00;94652.72;5024040;28;20244;-76
2023/05/18 00:31:39;;;;;;;2.20;1.20;;;;;;;13.58;100.00;94649.16;5012976;28;20775;-77
2023/05/18 00:34:05;;;;;;;1.57;1.27;;;;;;;13.52;100.00;94650.06;5031696;28;20221;-77
2023/05/18 00:36:31;;;;;;;1.17;0.83;;;;;;;13.54;100.00;94648.00;5033582;28;20305;-78
2023/05/18 00:38:57;;;;;;;1.20;1.10;;;;;;;13.61;100.00;94651.34;5031737;28;20313;-79
2023/05/18 00:41:24;;;;;;;3.83;1.10;;;;;;;13.46;100.00;94655.19;5034463;28;20246;-77
2023/05/18 00:43:49;;;;;;;1.53;1.10;;;;;;;13.53;100.00;94657.72;5018871;28;20917;-77
2023/05/18 00:46:15;;;;;;;1.47;1.00;;;;;;;13.48;100.00;94655.75;5033353;28;20233;-77
2023/05/18 00:48:40;;;;;;;1.50;1.00;;;;;;;13.52;100.00;94654.28;5028138;28;20221;-77
2023/05/18 00:51:05;;;;;;;2.17;1.10;;;;;;;13.49;100.00;94654.72;5019072;28;20282;-77
2023/05/18 00:53:31;;;;;;;3.00;1.37;;;;;;;13.37;100.00;94645.97;5032606;28;20233;-77
2023/05/18 00:55:57;;;;;;;4.20;1.60;;;;;;;13.48;100.00;94641.81;5032741;28;20222;-76
2023/05/18 00:58:23;;;;;;;4.67;1.70;;;;;;;13.42;100.00;94634.81;5027622;28;20236;-77
2023/05/18 01:00:48;;;;;;;2.23;1.60;;;;;;;13.42;100.00;94640.88;5024189;28;20241;-78
2023/05/18 01:03:14;;;;;;;2.40;1.80;;;;;;;13.29;100.00;94641.06;5018054;28;20240;-78
2023/05/18 01:05:41;;;;;;;2.87;1.90;;;;;;;13.43;100.00;94644.31;4983618;28;20237;-77
2023/05/18 01:08:06;;;;;;;3.57;2.10;;;;;;;13.43;100.00;94647.75;5033873;28;20230;-78
2023/05/18 01:10:32;;;;;;;4.57;1.80;;;;;;;13.36;100.00;94641.78;5017170;28;20674;-77
2023/05/18 01:13:10;;;;;;;3.23;1.77;;;;;;;13.36;100.00;94644.41;5011349;28;20222;-76
2023/05/18 01:15:37;;;;;;;3.53;1.87;;;;;;;13.43;100.00;94642.47;5015625;28;20715;-77
2023/05/18 01:18:21;;;;;;;2.13;1.57;;;;;;;13.36;100.00;94643.59;5030544;28;20226;-78
2023/05/18 01:20:56;;;;;;;2.90;1.63;;;;;;;13.44;100.00;94651.97;5032388;28;20237;-78
2023/05/18 01:23:43;;;;;;;2.23;1.80;;;;;;;13.42;100.00;94653.22;5018025;28;20238;-78
2023/05/18 01:26:15;;;;;;;4.97;1.80;;;;;;;13.44;100.00;94656.44;5039241;28;20249;-76
2023/05/18 01:28:44;;;;;;;2.87;1.73;;;;;;;13.49;100.00;94651.31;5007236;28;20229;-77
2023/05/18 01:31:11;;;;;;;2.53;1.70;;;;;;;13.38;100.00;94655.50;5029834;28;20332;-77
2023/05/18 01:33:36;;;;;;;4.47;1.80;;;;;;;13.38;100.00;94649.41;5008743;28;20230;-78
2023/05/18 01:36:01;;;;;;;2.77;1.70;;;;;;;13.31;100.00;94644.25;5030776;28;20267;-78
2023/05/18 01:38:27;;;;;;;3.47;2.00;;;;;;;13.41;100.00;94652.41;5029851;28;20311;-78
2023/05/18 01:40:58;;;;;;;2.40;1.73;;;;;;;13.42;100.00;94651.38;5009477;28;20349;-77
2023/05/18 01:43:28;;;;;;;3.17;1.60;;;;;;;13.46;100.00;94652.56;5030301;28;20226;-77
2023/05/18 01:45:55;;;;;;;2.40;1.73;;;;;;;13.49;100.00;94644.19;5014964;28;20699;-77
2023/05/18 01:48:21;;;;;;;2.47;1.60;;;;;;;13.42;100.00;94638.22;5014305;28;20284;-77
2023/05/18 01:50:47;;;;;;;2.37;1.60;;;;;;;13.42;100.00;94642.72;5018752;28;20902;-77
2023/05/18 01:53:37;;;;;;;2.03;1.60;;;;;;;13.47;100.00;94645.44;5012958;28;20218;-77
2023/05/18 01:56:05;;;;;;;2.80;1.70;;;;;;;13.52;100.00;94652.69;5035954;28;20241;-77
2023/05/18 01:58:31;;;;;;;1.90;1.70;;;;;;;13.47;100.00;94662.03;5018680;28;20244;-77
2023/05/18 02:00:56;;;;;;;4.30;1.80;;;;;;;13.42;100.00;94655.88;5020407;28;20256;-77
2023/05/18 02:03:22;;;;;;;2.30;1.63;;;;;;;13.44;100.00;94656.44;5034530;28;20236;-78
2023/05/18 02:05:47;;;;;;;3.33;1.70;;;;;;;13.48;100.00;94653.13;5031878;28;20244;-77
2023/05/18 02:08:13;;;;;;;2.97;2.00;;;;;;;13.50;100.00;94653.69;5017913;28;20252;-77
2023/05/18 02:10:38;;;;;;;3.20;1.73;;;;;;;13.54;100.00;94659.34;5010553;28;20234;-78
2023/05/18 02:13:04;;;;;;;2.90;1.67;;;;;;;13.51;100.00;94657.16;5013417;28;20217;-78
2023/05/18 02:15:29;;;;;;;2.80;1.77;;;;;;;13.53;100.00;94665.59;5028636;28;20222;-77
2023/05/18 02:17:56;;;;;;;2.87;1.73;;;;;;;13.57;100.00;94663.31;5015011;28;20222;-77
2023/05/18 02:20:22;;;;;;;2.83;1.70;;;;;;;13.56;100.00;94659.09;5021089;28;20230;-77
2023/05/18 02:22:47;;;;;;;3.03;1.63;;;;;;;13.53;100.00;94662.97;5028732;28;20229;-77
2023/05/18 02:25:13;;;;;;;2.57;1.50;;;;;;;13.54;100.00;94661.16;5029726;28;20245;-77
2023/05/18 02:27:39;;;;;;;2.63;1.60;;;;;;;13.52;100.00;94660.59;5030799;28;20226;-77
2023/05/18 02:30:07;;;;;;;2.20;1.70;;;;;;;13.56;100.00;94659.09;5014113;28;20233;-76
2023/05/18 02:32:37;;;;;;;3.30;2.20;;;;;;;13.50;100.00;94658.97;5032323;28;20253;-77
2023/05/18 02:35:06;;;;;;;3.73;2.43;;;;;;;13.52;100.00;94655.31;5034232;28;20230;-76
2023/05/18 02:37:33;;;;;;;4.03;2.90;;;;;;;13.52;100.00;94656.91;5022406;28;20233;-77
2023/05/18 02:40:01;;;;;;;5.17;3.23;;;;;;;13.52;100.00;94657.94;5026875;28;20233;-77
2023/05/18 02:42:27;;;;;;;4.40;3.50;;;;;;;13.54;100.00;94656.69;5017371;28;20221;-77
2023/05/18 02:44:52;;;;;;;8.50;4.13;;;;;;;13.56;100.00;94665.16;5031539;28;20241;-76
2023/05/18 02:47:17;;;;;;;6.43;3.63;;;;;;;13.55;100.00;94670.63;5033917;28;20320;-77
2023/05/18 02:49:43;;;;;;;5.33;3.50;;;;;;;13.54;100.00;94674.31;5030180;28;20222;-78
2023/05/18 02:52:08;;;;;;;6.63;3.37;;;;;;;13.56;100.00;94673.06;5034756;28;20614;-77
2023/05/18 02:54:34;;;;;;;4.93;3.33;;;;;;;13.55;100.00;94673.25;5023728;28;20222;-77
2023/05/18 02:56:59;;;;;;;5.53;3.00;;;;;;;13.52;100.00;94673.72;5028455;28;20229;-76
2023/05/18 02:59:25;;;;;;;6.20;2.60;;;;;;;13.51;100.00;94683.44;5033364;28;20229;-77
2023/05/18 03:01:50;;;;;;;3.80;2.50;;;;;;;13.51;100.00;94683.44;5025607;28;20229;-76
2023/05/18 03:04:16;;;;;;;3.10;2.40;;;;;;;13.52;100.00;94695.53;5023529;28;20236;-77
2023/05/18 03:06:41;;;;;;;4.33;2.60;;;;;;;13.59;100.00;94698.09;5030292;28;20233;-77
2023/05/18 03:09:07;;;;;;;4.17;3.43;;;;;;;13.40;100.00;94705.19;5016557;28;20263;-78
2023/05/18 03:11:32;;;;;;;5.80;3.23;;;;;;;13.42;100.00;94706.59;5019923;28;20598;-78
2023/05/18 03:13:58;;;;;;;3.63;3.20;;;;;;;13.55;100.00;94707.44;5033930;28;20272;-78
2023/05/18 03:16:27;;;;;;;3.50;2.20;;;;;;;13.59;100.00;94714.66;5019502;28;20708;-77
2023/05/18 03:18:53;;;;;;;3.73;2.13;;;;;;;13.62;100.00;94716.84;5031130;28;20287;-77
2023/05/18 03:21:20;;;;;;;2.47;1.70;;;;;;;13.57;100.00;94714.09;5032897;28;20218;-77
2023/05/18 03:23:46;;;;;;;3.77;1.80;;;;;;;13.52;100.00;94724.47;5020155;28;20222;-77
2023/05/18 03:26:11;;;;;;;3.27;1.70;;;;;;;13.50;100.00;94724.69;5025009;28;20221;-77
2023/05/18 03:28:40;;;;;;;2.20;1.60;;;;;;;13.55;100.00;94731.09;5042633;28;20625;-77
2023/05/18 03:31:05;;;;;;;5.10;1.77;;;;;;;13.57;100.00;94736.94;5033184;28;20279;-77
2023/05/18 03:33:31;;;;;;;2.67;1.80;;;;;;;13.56;100.00;94723.00;5037508;28;20234;-76
2023/05/18 03:36:01;;;;;;;2.93;1.90;;;;;;;13.59;100.00;94724.41;5030792;28;20268;-77
2023/05/18 03:38:26;;;;;;;3.57;1.90;;;;;;;13.57;100.00;94726.41;5047777;28;20225;-77
2023/05/18 03:40:51;;;;;;;2.10;1.90;;;;;;;13.60;100.00;94731.25;5031433;28;20229;-76
2023/05/18 03:43:17;;;;;;;2.90;2.00;;;;;;;13.60;100.00;94732.06;5009059;28;20238;-77
2023/05/18 03:45:42;;;;;;;2.93;2.00;;;;;;;13.55;100.00;94729.28;5037447;28;20229;-73
2023/05/18 03:48:08;;;;;;;4.17;2.23;;;;;;;13.57;100.00;94731.69;5033962;28;20238;-74
2023/05/18 03:50:33;;;;;;;3.70;2.20;;;;;;;13.54;100.00;94734.78;5020475;28;20233;-73
2023/05/18 03:52:59;;;;;;;3.53;2.10;;;;;;;13.52;100.00;94731.56;5017204;28;20342;-72
2023/05/18 03:55:25;;;;;;;4.60;2.40;;;;;;;13.57;100.00;94744.81;5020210;28;20240;-73
2023/05/18 03:57:52;;;;;;;3.23;2.20;;;;;;;13.53;100.00;94744.47;5032785;28;20304;-73
2023/05/18 04:00:18;;;;;;;3.97;2.40;;;;;;;13.53;100.00;94736.59;5033425;28;20228;-73
2023/05/18 04:02:44;;;;;;;4.23;2.40;;;;;;;13.50;100.00;94744.91;5036196;28;20221;-74
2023/05/18 04:05:09;;;;;;;3.27;2.47;;;;;;;13.57;100.00;94750.09;5034479;28;20236;-73
2023/05/18 04:07:42;;;;;;;4.13;2.60;;;;;;;13.46;100.00;94754.28;5030661;28;20230;-73
2023/05/18 04:10:11;;;;;;;3.90;2.73;;;;;;;13.54;100.00;94755.81;5030020;28;20283;-74
2023/05/18 04:12:37;;;;;;;4.37;2.57;;;;;;;13.58;100.00;94755.16;5017572;28;20741;-73
2023/05/18 04:15:02;;;;;;;5.60;2.90;;;;;;;13.54;100.00;94759.25;5015722;28;20229;-75
2023/05/18 04:17:28;;;;;;;5.93;3.10;;;;;;;13.46;100.00;94760.34;5037962;28;20226;-72
2023/05/18 04:19:54;;;;;;;4.20;3.00;;;;;;;13.48;100.00;94765.38;5016730;28;20226;-72
2023/05/18 04:22:20;;;;;;;5.80;3.20;;;;;;;13.50;100.00;94761.50;5015039;28;20312;-72
2023/05/18 04:24:46;;;;;;;4.50;3.03;;;;;;;13.60;100.00;94762.81;5032903;28;20241;-72
2023/05/18 04:27:12;;;;;;;5.63;3.30;;;;;;;13.59;100.00;94762.00;5030990;28;20300;-78
2023/05/18 04:29:38;;;;;;;6.43;3.37;;;;;;;13.57;100.00;94758.78;5016921;28;20237;-78
2023/05/18 04:32:09;;;;;;;4.23;3.30;;;;;;;13.52;100.00;94761.28;5018777;28;20253;-80
2023/05/18 04:34:36;;;;;;;8.20;3.50;;;;;;;13.58;100.00;94754.34;5015288;28;20288;-78
2023/05/18 04:37:07;;;;;;;5.30;3.33;;;;;;;13.57;100.00;94756.16;5020115;28;20732;-77
2023/05/18 04:39:33;;;;;;;6.07;3.20;;;;;;;13.64;100.00;94763.94;5006013;28;20785;-78
2023/05/18 04:41:59;;;;;;;7.67;3.30;;;;;;;13.72;100.00;94758.41;5002940;28;20244;-77
2023/05/18 04:44:27;;;;;;;4.97;3.40;;;;;;;13.70;100.00;94765.72;5019897;28;20222;-78
2023/05/18 04:46:55;;;;;;;5.73;3.27;;;;;;;13.67;100.00;94766.97;5016924;28;20312;-77
2023/05/18 04:49:21;;;;;;;3.93;3.20;;;;;;;13.66;100.00;94769.81;5018622;28;20325;-78
2023/05/18 04:51:54;;;;;;;4.93;3.30;;;;;;;13.75;100.00;94774.56;5020265;28;20221;-79
2023/05/18 04:54:29;;;;;;;6.37;3.30;;;;;;;13.70;100.00;94782.31;5029428;28;20225;-78
2023/05/18 04:56:55;;;;;;;4.77;3.33;;;;;;;13.73;100.00;94778.44;5012160;28;20222;-77
2023/05/18 04:59:24;;;;;;;4.20;3.20;;;;;;;13.75;100.00;94787.69;5016498;28;20734;-78
2023/05/18 05:01:53;;;;;;;6.67;3.20;;;;;;;13.84;100.00;94788.19;5029260;28;20280;-75
2023/05/18 05:04:19;;;;;;;5.33;3.50;;;;;;;13.79;100.00;94790.69;5013364;28;20304;-79
2023/05/18 05:06:45;;;;;;;5.60;3.47;;;;;;;13.82;100.00;94795.50;5013915;28;20218;-79
2023/05/18 05:09:12;;;;;;;6.17;3.40;;;;;;;13.70;100.00;94807.78;5033596;28;20654;-80
2023/05/18 05:11:38;;;;;;;8.20;3.60;;;;;;;13.67;100.00;94800.34;5018014;28;20297;-79
2023/05/18 05:14:03;;;;;;;5.63;3.80;;;;;;;13.60;100.00;94800.44;5023392;28;21127;-77
2023/05/18 05:16:29;;;;;;;5.13;3.73;;;;;;;13.38;100.00;94807.97;5031513;28;20820;-77
2023/05/18 05:18:54;;;;;;;5.37;3.40;;;;;;;13.49;100.00;94814.31;5030949;28;20233;-78
2023/05/18 05:21:20;;;;;;;5.33;3.33;;;;;;;13.52;100.00;94806.78;5022741;28;20228;-79
2023/05/18 05:23:46;;;;;;;4.40;3.20;;;;;;;13.62;100.00;94808.91;5023892;28;20221;-80
2023/05/18 05:26:11;;;;;;;5.40;3.20;;;;;;;13.70;100.00;94810.44;5033247;28;20229;-81
2023/05/18 05:28:37;;;;;;;3.87;3.27;;;;;;;13.70;100.00;94818.31;5029625;28;20597;-81
2023/05/18 05:31:02;;;;;;;5.47;3.50;;;;;;;13.70;100.00;94816.50;5031060;28;20221;-79
2023/05/18 05:33:28;;;;;;;4.83;3.47;;;;;;;13.63;100.00;94822.84;5036372;28;20687;-78
2023/05/18 05:35:53;;;;;;;6.33;3.90;;;;;;;13.61;100.00;94827.53;5032738;28;20773;-79
2023/05/18 05:38:18;;;;;;;5.57;3.90;;;;;;;13.63;100.00;94833.38;5016600;28;20230;-79
2023/05/18 05:40:44;;;;;;;5.70;3.90;;;;;;;13.59;100.00;94825.09;5031286;28;20711;-81
2023/05/18 05:43:10;;;;;;;6.20;3.80;;;;;;;13.51;100.00;94830.69;5033076;28;20225;-80
2023/05/18 05:45:35;;;;;;;7.33;4.30;;;;;;;13.56;100.00;94828.19;5037067;28;20287;-78
2023/05/18 05:48:01;;;;;;;7.20;4.10;;;;;;;13.60;100.00;94833.81;5019232;28;20226;-76
2023/05/18 05:50:26;;;;;;;7.07;4.30;;;;;;;13.65;100.00;94836.59;5032152;28;20221;-77
2023/05/18 05:52:52;;;;;;;8.13;4.53;;;;;;;13.63;100.00;94838.63;5028722;28;20706;-77
2023/05/18 05:55:18;;;;;;;9.27;4.83;;;;;;;13.54;100.00;94838.13;5034226;28;20225;-79
2023/05/18 05:57:43;;;;;;;6.37;4.50;;;;;;;13.43;100.00;94834.41;5006089;28;20221;-78
2023/05/18 06:00:12;;;;;;;6.23;3.83;;;;;;;13.52;100.00;94834.91;5014315;28;20238;-78
2023/05/18 06:02:38;;;;;;;6.27;4.53;;;;;;;13.56;100.00;94843.97;4998732;28;20245;-79
2023/05/18 06:05:06;;;;;;;5.67;4.27;;;;;;;13.59;100.00;94832.22;5009442;28;20253;-79
2023/05/18 06:07:31;;;;;;;7.10;5.10;;;;;;;13.52;100.00;94840.97;5009128;28;20233;-79
2023/05/18 06:09:57;;;;;;;7.23;5.03;;;;;;;13.61;100.00;94841.50;5013900;28;20258;-78
2023/05/18 06:12:22;;;;;;;8.23;5.00;;;;;;;13.66;100.00;94836.34;5031293;28;20356;-79
2023/05/18 06:14:48;;;;;;;6.50;5.00;;;;;;;13.71;100.00;94840.97;5018016;28;20323;-80
2023/05/18 06:17:13;;;;;;;8.30;5.07;;;;;;;13.66;100.00;94844.25;5036332;28;20225;-78
2023/05/18 06:19:39;;;;;;;9.83;5.50;;;;;;;13.71;100.00;94841.75;5034057;28;21055;-78
2023/05/18 06:22:05;;;;;;;7.60;5.17;;;;;;;13.70;100.00;94847.25;5031479;28;20225;-79
2023/05/18 06:24:30;;;;;;;9.90;5.07;;;;;;;13.62;100.00;94848.34;5018807;28;20255;-78
2023/05/18 06:26:55;;;;;;;9.00;5.30;;;;;;;13.68;100.00;94852.75;5042293;28;20777;-80
2023/05/18 06:29:21;;;;;;;10.77;6.77;;;;;;;13.71;100.00;94849.66;5026661;28;20651;-79
2023/05/18 06:31:47;;;;;;;10.93;6.73;;;;;;;13.75;100.00;94853.47;5042834;28;20913;-80
2023/05/18 06:34:12;;;;;;;9.33;6.37;;;;;;;13.74;100.00;94853.66;5019714;28;20229;-81
2023/05/18 06:36:38;;;;;;;9.77;6.00;;;;;;;13.81;100.00;94857.03;5013185;28;20223;-83
2023/05/18 06:39:04;;;;;;;10.30;5.70;;;;;;;13.77;100.00;94859.31;5017041;28;20270;-80
2023/05/18 06:41:29;;;;;;;9.67;5.90;;;;;;;13.86;100.00;94868.50;5032991;28;20661;-81
2023/05/18 06:43:59;;;;;;;10.40;6.70;;;;;;;13.83;100.00;94873.38;5027232;28;20226;-79
2023/05/18 06:46:25;;;;;;;11.17;5.30;;;;;;;13.98;100.00;94873.81;5016178;28;20229;-78
2023/05/18 06:48:51;;;;;;;9.43;5.17;;;;;;;13.99;100.00;94872.81;5023223;28;20594;-75
2023/05/18 06:51:16;;;;;;;12.50;5.53;;;;;;;14.12;100.00;94870.81;5018453;28;20225;-77
2023/05/18 06:53:42;;;;;;;12.13;5.50;;;;;;;14.15;100.00;94874.81;5019062;28;20225;-78
2023/05/18 06:56:07;;;;;;;10.03;5.43;;;;;;;14.25;100.00;94887.47;5032513;28;20338;-78
2023/05/18 06:58:33;;;;;;;11.67;5.87;;;;;;;14.10;100.00;94885.22;5025047;28;20229;-76
2023/05/18 07:01:01;;;;;;;8.83;5.80;;;;;;;14.16;100.00;94889.59;5017860;28;20234;-77
2023/05/18 07:03:27;;;;;;;11.33;6.30;;;;;;;14.19;100.00;94892.56;5017589;28;20225;-79
2023/05/18 07:05:53;;;;;;;12.47;6.30;;;;;;;14.11;100.00;94900.00;5034659;28;20287;-78
2023/05/18 07:08:18;;;;;;;14.33;6.23;;;;;;;14.04;100.00;94899.28;5033831;28;20230;-79
2023/05/18 07:10:44;;;;;;;11.77;6.27;;;;;;;14.05;100.00;94900.84;5019477;28;20225;-79
2023/05/18 07:13:09;;;;;;;10.97;5.90;;;;;;;14.10;100.00;94901.00;5030567;28;20238;-78
2023/05/18 07:15:35;;;;;;;11.10;6.70;;;;;;;14.10;100.00;94904.44;5013423;28;20241;-78
2023/05/18 07:18:00;;;;;;;13.20;6.83;;;;;;;13.86;100.00;94907.97;5032730;28;20701;-79
2023/05/18 07:20:26;;;;;;;11.77;6.60;;;;;;;13.81;100.00;94913.06;5019163;28;20234;-80
2023/05/18 07:22:53;;;;;;;10.20;6.60;;;;;;;13.80;100.00;94910.69;5043363;28;20221;-77
2023/05/18 07:25:19;;;;;;;10.47;6.80;;;;;;;13.75;100.00;94924.50;5026851;28;20230;-79
2023/05/18 07:27:45;;;;;;;12.53;7.00;;;;;;;13.69;100.00;94924.53;5031683;28;20224;-80
2023/05/18 07:30:10;;;;;;;13.13;7.70;;;;;;;13.76;100.00;94927.91;5029752;28;20298;-80
2023/05/18 07:32:36;;;;;;;12.73;7.70;;;;;;;13.77;100.00;94919.00;5016018;28;20232;-77
2023/05/18 07:35:01;;;;;;;13.93;8.20;;;;;;;13.70;100.00;94921.72;5018401;28;20698;-79
2023/05/18 07:37:27;;;;;;;13.50;7.80;;;;;;;13.74;100.00;94927.31;5032927;28;20280;-78
2023/05/18 07:39:52;;;;;;;16.37;8.63;;;;;;;13.74;100.00;94929.94;5020568;28;20210;-79
2023/05/18 07:42:18;;;;;;;15.80;8.57;;;;;;;13.84;100.00;94935.50;5034015;28;20238;-78
2023/05/18 07:44:43;;;;;;;11.63;8.23;;;;;;;13.68;100.00;94934.28;5030345;28;20264;-79
2023/05/18 07:47:09;;;;;;;13.80;7.30;;;;;;;13.64;100.00;94945.41;5005864;28;20236;-78
2023/05/18 07:49:34;;;;;;;16.10;7.80;;;;;;;13.48;100.00;94950.25;5032899;28;20233;-78
2023/05/18 07:52:01;;;;;;;13.70;7.63;;;;;;;13.46;100.00;94938.31;5015867;28;20677;-79
2023/05/18 07:54:26;;;;;;;13.87;8.00;;;;;;;13.57;100.00;94950.75;5031588;28;20313;-79
2023/05/18 07:56:52;;;;;;;14.97;8.17;;;;;;;13.55;100.00;94952.00;5029960;28;20660;-80
2023/05/18 07:59:18;;;;;;;14.77;8.20;;;;;;;13.54;100.00;94953.84;5026789;28;20678;-79
2023/05/18 08:01:44;;;;;;;16.77;8.53;;;;;;;13.60;100.00;94962.66;5030192;28;20229;-80
2023/05/18 08:04:10;;;;;;;14.57;9.10;;;;;;;13.49;100.00;94959.72;5039343;28;20287;-79
2023/05/18 08:06:35;;;;;;;15.97;7.80;;;;;;;13.45;100.00;94961.19;5027320;28;20230;-79
2023/05/18 08:09:00;;;;;;;13.47;7.97;;;;;;;13.37;100.00;94958.81;5010145;28;20233;-78
2023/05/18 08:11:26;;;;;;;14.67;7.60;;;;;;;13.35;98.73;94968.75;5028665;28;20225;-79
2023/05/18 08:13:51;;;;;;;13.07;7.77;;;;;;;13.47;99.35;94980.16;5031746;28;20863;-79
2023/05/18 08:16:17;;;;;;;10.60;7.50;;;;;;;13.60;100.00;94978.44;5036633;28;20225;-78
2023/05/18 08:18:42;;;;;;;14.50;6.60;;;;;;;13.50;97.54;94982.38;5048333;28;20214;-80
2023/05/18 08:21:08;;;;;;;15.03;7.70;;;;;;;13.46;100.00;94985.66;5028442;28;20783;-79
2023/05/18 08:23:37;;;;;;;14.23;7.33;;;;;;;13.57;100.00;94986.75;5010887;28;20226;-80
2023/05/18 08:26:03;;;;;;;12.37;7.77;;;;;;;13.55;100.00;94991.44;5027872;28;20229;-80
2023/05/18 08:28:29;;;;;;;15.37;7.73;;;;;;;13.52;100.00;94996.09;5024202;28;20280;-79
2023/05/18 08:30:54;;;;;;;17.93;7.77;;;;;;;13.49;100.00;94993.91;5000978;28;20230;-80
2023/05/18 08:33:20;;;;;;;15.17;7.70;;;;;;;13.52;100.00;95001.38;5030665;28;20233;-80
2023/05/18 08:35:46;;;;;;;15.20;8.20;;;;;;;13.67;99.32;95002.84;5033525;28;20689;-80
2023/05/18 08:38:11;;;;;;;14.50;7.90;;;;;;;13.52;100.00;95002.41;5036233;28;20233;-80
2023/05/18 08:40:42;;;;;;;17.40;8.47;;;;;;;13.56;100.00;95008.84;5018555;28;20253;-80
2023/05/18 08:43:21;;;;;;;13.70;8.00;;;;;;;13.61;100.00;95014.25;5014635;28;20225;-80
2023/05/18 08:45:51;;;;;;;13.83;8.00;;;;;;;13.49;100.00;95009.69;5001662;28;20882;-77
2023/05/18 08:48:16;;;;;;;18.57;9.07;;;;;;;13.45;100.00;95010.31;5006364;28;20231;-79
2023/05/18 08:50:42;;;;;;;17.00;8.33;;;;;;;13.40;100.00;95016.22;5033332;28;20218;-80
2023/05/18 08:53:09;;;;;;;14.13;8.23;;;;;;;13.50;100.00;95023.63;4995264;28;20256;-80
2023/05/18 08:55:35;;;;;;;16.83;8.20;;;;;;;13.58;100.00;95020.75;5009493;28;20337;-79
2023/05/18 08:58:01;;;;;;;13.50;7.60;;;;;;;13.71;100.00;95019.84;5026993;28;20235;-81
2023/05/18 09:00:27;;;;;;;17.53;8.47;;;;;;;13.78;100.00;95025.84;5022545;28;20265;-80
2023/05/18 09:02:52;;;;;;;13.77;8.37;;;;;;;13.60;100.00;95033.66;5014339;28;20715;-79
2023/05/18 09:05:18;;;;;;;15.53;8.67;;;;;;;13.59;100.00;95029.44;5029450;28;20240;-79
2023/05/18 09:07:43;;;;;;;15.30;8.00;;;;;;;13.57;100.00;95034.91;5029157;28;20256;-80
2023/05/18 09:10:10;;;;;;;15.80;8.50;;;;;;;13.52;100.00;95036.59;5018819;28;20847;-79
2023/05/18 09:12:36;;;;;;;14.70;8.50;;;;;;;13.50;100.00;95034.97;5000959;28;20844;-80
2023/05/18 09:15:01;;;;;;;17.17;8.23;;;;;;;13.67;100.00;95037.06;5031768;28;20236;-80
2023/05/18 09:17:27;;;;;;;18.47;8.40;;;;;;;13.75;100.00;95042.06;5036853;28;20317;-80
2023/05/18 09:19:52;;;;;;;19.43;9.13;;;;;;;13.78;100.00;95045.03;5039590;28;20238;-80
2023/05/18 09:22:18;;;;;;;14.60;8.43;;;;;;;13.69;100.00;95050.78;5041885;28;20229;-79
2023/05/18 09:24:43;;;;;;;19.40;8.23;;;;;;;13.80;100.00;95045.66;5016490;28;20263;-80
2023/05/18 09:27:09;;;;;;;16.53;8.77;;;;;;;13.91;100.00;95052.03;5015873;28;20692;-81
2023/05/18 09:29:35;;;;;;;19.50;9.17;;;;;;;13.98;100.00;95047.50;5018269;28;20234;-80
2023/05/18 09:32:03;;;;;;;19.17;9.33;;;;;;;13.99;100.00;95054.38;5041404;28;20233;-80
2023/05/18 09:34:39;;;;;;;17.67;9.73;;;;;;;13.98;100.00;95052.75;4995232;28;20234;-79
2023/05/18 09:37:05;;;;;;;18.97;9.03;;;;;;;13.95;100.00;95051.38;5008771;28;20237;-79
2023/05/18 09:39:30;;;;;;;18.23;9.87;;;;;;;14.01;100.00;95053.16;5015627;28;20237;-80
2023/05/18 09:41:56;;;;;;;16.00;9.60;;;;;;;14.06;100.00;95063.03;4997333;28;20226;-80
2023/05/18 09:44:34;;;;;;;15.77;9.50;;;;;;;14.05;100.00;95059.56;4998334;28;20246;-79
2023/05/18 09:47:00;;;;;;;18.33;8.83;;;;;;;14.03;100.00;95056.34;5028010;28;20813;-80
2023/05/18 09:49:28;;;;;;;18.03;9.50;;;;;;;14.09;100.00;95063.38;5026277;28;20237;-79
2023/05/18 09:51:54;;;;;;;17.57;9.27;;;;;;;14.04;100.00;95065.06;5028233;28;20604;-80
2023/05/18 09:54:19;;;;;;;16.10;9.67;;;;;;;14.07;100.00;95069.88;5015246;28;20232;-80
2023/05/18 09:56:45;;;;;;;17.50;9.37;;;;;;;14.06;100.00;95070.91;5022695;28;20244;-80
2023/05/18 09:59:12;;;;;;;18.70;9.40;;;;;;;14.07;100.00;95072.50;5032342;28;20237;-81
2023/05/18 10:02:00;;;;;;;19.67;10.33;;;;;;;14.08;100.00;95066.22;5033644;28;20229;-81
2023/05/18 10:04:41;;;;;;;17.30;10.20;;;;;;;14.07;100.00;95069.88;5031538;28;20319;-80
2023/05/18 10:07:11;;;;;;;14.73;9.50;;;;;;;14.08;100.00;95074.13;5020117;28;20222;-71
2023/05/18 10:09:38;;;;;;;19.10;9.87;;;;;;;14.05;100.00;95078.00;5003716;28;20222;-72
2023/05/18 10:12:15;;;;;;;15.07;9.50;;;;;;;14.03;100.00;95077.41;5022207;28;20233;-71
2023/05/18 10:14:44;;;;;;;17.97;9.13;;;;;;;14.06;100.00;95082.25;5014435;28;20263;-71
2023/05/18 10:17:13;;;;;;;16.77;9.90;;;;;;;14.06;100.00;95082.25;5022610;28;20229;-72
2023/05/18 10:19:40;;;;;;;20.07;9.37;;;;;;;14.03;100.00;95084.50;5017735;28;20960;-72
2023/05/18 10:22:06;;;;;;;16.37;9.03;;;;;;;14.01;100.00;95081.28;5032289;28;20213;-72
2023/05/18 10:24:33;;;;;;;20.83;9.00;;;;;;;14.04;100.00;95083.50;5020096;28;20804;-72
2023/05/18 10:27:00;;;;;;;17.10;9.10;;;;;;;14.06;100.00;95084.88;5039943;28;20312;-71
2023/05/18 10:29:26;;;;;;;19.50;9.00;;;;;;;14.10;100.00;95082.59;5015162;28;20233;-72
2023/05/18 10:31:51;;;;;;;21.87;9.30;;;;;;;14.16;100.00;95087.03;5034957;28;20956;-72
2023/05/18 10:34:19;;;;;;;19.40;9.60;;;;;;;14.18;100.00;95092.88;5021415;28;20218;-71
2023/05/18 10:36:44;;;;;;;17.93;9.40;;;;;;;14.23;100.00;95098.28;5029071;28;20234;-72
2023/05/18 10:39:10;;;;;;;18.10;8.90;;;;;;;14.28;100.00;95093.16;5030815;28;20309;-71
2023/05/18 10:41:35;;;;;;;17.60;8.97;;;;;;;14.33;100.00;95098.59;5030289;28;20233;-72
2023/05/18 10:44:02;;;;;;;16.97;8.73;;;;;;;14.33;100.00;95100.47;4999404;28;20233;-72
2023/05/18 10:46:29;;;;;;;19.27;8.17;;;;;;;14.18;100.00;95106.03;5031444;28;20236;-72
2023/05/18 10:48:54;;;;;;;13.87;7.87;;;;;;;14.13;100.00;95106.69;5031501;28;20245;-71
2023/05/18 10:51:20;;;;;;;16.50;8.37;;;;;;;14.19;100.00;95111.06;5013652;28;20777;-71
2023/05/18 10:53:46;;;;;;;16.80;8.90;;;;;;;14.22;99.83;95114.28;5030505;28;20217;-71
2023/05/18 10:56:14;;;;;;;24.27;9.30;;;;;;;14.22;100.00;95112.47;5014308;28;20240;-71
2023/05/18 10:58:39;;;;;;;17.40;8.40;;;;;;;14.18;100.00;95117.38;5028321;28;20264;-72
2023/05/18 11:01:07;;;;;;;16.57;8.70;;;;;;;14.26;100.00;95116.25;5030268;28;20229;-71
2023/05/18 11:03:33;;;;;;;15.73;8.70;;;;;;;14.26;100.00;95118.91;5015309;28;20230;-72
2023/05/18 11:06:16;;;;;;;18.43;9.00;;;;;;;14.16;100.00;95124.66;5029321;28;20226;-71
2023/05/18 11:08:45;;;;;;;18.37;8.83;;;;;;;14.18;100.00;95127.09;5020486;28;20229;-72
2023/05/18 11:11:10;;;;;;;18.23;9.07;;;;;;;14.26;100.00;95123.38;5036236;28;20245;-71
2023/05/18 11:13:37;;;;;;;18.43;9.47;;;;;;;14.33;100.00;95124.94;5018564;28;20625;-72
2023/05/18 11:16:06;;;;;;;22.60;9.70;;;;;;;14.39;100.00;95125.91;5019617;28;20895;-72
2023/05/18 11:18:38;;;;;;;15.63;8.90;;;;;;;14.39;100.00;95134.63;5018805;28;20233;-72